DXXX

Lomé-Tokoin Airport

Lomé, Togo
METAR DXXX 250400Z 26007KT 9999 FEW012 27/25 Q1010 NOSIG
Observed Flight Rules
May-25 @ 04:00 UTC (an hour ago) Visual Flight Rules
Wind Visibility Clouds
260° at 7 knots 10,000+ meters
  • Few at 1,200' AGL
Temperatures Readings
Current 27°C / 81°F
Dewpoint 25°C / 77°F
Humidity 89%
Altimeter 29.82" Hg
Pressure 1010 hPa
Elevation 25
METAR DXXX 250400Z 26007KT 9999 FEW012 27/25 Q1010 NOSIG
Observed Flight Rules
May-25 @ 04:00 UTC
(an hour ago)
VFR
Wind Visibility
260° at 7 knots 10,000+ meters
Clouds
  • Few at 1,200' AGL
Temperature Dewpoint
27°C / 81°F 25°C / 77°F
Humidity Altimeter Pressure
89% 29.82" Hg 1010 hPa